Overview Statistics Trail Chart Weather Telemetry Raw packets
 

This is the latest recevied weather packets stored in our database for station/object YD2CLX-11. If no packets are shown the sender has not sent any weather packets the latest 10 day(s).

<< 6 7 8 9 10 11 12 >>
Time Temp. Humidity Pressure Rain* Wind** Luminosity Snow
1788490918 36.11° C 45% 1000.5 hPa - - - -
1788490317 36.11° C 45% 1000.7 hPa - - - -
1788489716 35.56° C 46% 1000.9 hPa - - - -
1788489114 33.33° C 52% 1001.1 hPa - - - -
1788488513 34.44° C 49% 1001.2 hPa - - - -
1788487912 34.44° C 49% 1001.2 hPa - - - -
1788487312 34.44° C 49% 1001.3 hPa - - - -
1788486709 33.89° C 50% 1001.4 hPa - - - -
1788486108 33.89° C 51% 1001.4 hPa - - - -
1788484905 32.78° C 55% 1001.6 hPa - - - -
1788484304 32.22° C 57% 1001.4 hPa - - - -
1788483703 32.22° C 56% 1001.5 hPa - - - -
1788483101 32.22° C 58% 1001.4 hPa - - - -
1788482500 32.22° C 58% 1001.4 hPa - - - -
1788481898 31.67° C 59% 1001.3 hPa - - - -
1788481297 31.67° C 63% 1001.1 hPa - - - -
1788480697 31.11° C 64% 1001.1 hPa - - - -
1788480096 30.56° C 66% 1001.1 hPa - - - -
1788479494 30° C 69% 1001.1 hPa - - - -
1788478893 28.89° C 72% 1001 hPa - - - -
1788478292 27.78° C 75% 1000.8 hPa - - - -
1788477691 27.22° C 75% 1000.7 hPa - - - -
1788477090 26.11° C 78% 1000.7 hPa - - - -
1788476489 25.56° C 79% 1000.7 hPa - - - -
1788475888 23.33° C 84% 1000.6 hPa - - - -

* Rain since midnight (hover to see other rain measurements)
** Current wind speed in m/s (hover to see current wind gust speed)